sensor_id;sensor_type;location;lat;lon;timestamp;pressure;altitude;pressure_sealevel;temperature;humidity
47054;BME280;32811;52.382;5.270;2024-03-22T00:01:49;102068.06;;;9.71;100.00
47054;BME280;32811;52.382;5.270;2024-03-22T00:04:15;102090.22;;;9.94;100.00
47054;BME280;32811;52.382;5.270;2024-03-22T00:06:42;102091.91;;;9.94;100.00
47054;BME280;32811;52.382;5.270;2024-03-22T00:09:09;102089.38;;;9.95;100.00
47054;BME280;32811;52.382;5.270;2024-03-22T00:11:35;102074.69;;;9.93;100.00
47054;BME280;32811;52.382;5.270;2024-03-22T00:14:01;102059.81;;;9.83;100.00
47054;BME280;32811;52.382;5.270;2024-03-22T00:16:27;102085.09;;;9.96;100.00
47054;BME280;32811;52.382;5.270;2024-03-22T00:18:52;102080.72;;;9.93;100.00
47054;BME280;32811;52.382;5.270;2024-03-22T00:21:18;102084.31;;;9.98;100.00
47054;BME280;32811;52.382;5.270;2024-03-22T00:23:45;102064.41;;;9.94;100.00
47054;BME280;32811;52.382;5.270;2024-03-22T00:26:10;102041.88;;;9.87;100.00
47054;BME280;32811;52.382;5.270;2024-03-22T00:28:36;102053.97;;;9.90;100.00
47054;BME280;32811;52.382;5.270;2024-03-22T00:31:02;102046.41;;;9.96;100.00
47054;BME280;32811;52.382;5.270;2024-03-22T00:33:27;102040.34;;;9.95;100.00
47054;BME280;32811;52.382;5.270;2024-03-22T00:35:53;102041.28;;;9.97;100.00
47054;BME280;32811;52.382;5.270;2024-03-22T00:38:18;102034.44;;;9.98;100.00
47054;BME280;32811;52.382;5.270;2024-03-22T00:40:44;102025.84;;;9.99;100.00
47054;BME280;32811;52.382;5.270;2024-03-22T00:43:10;102025.00;;;10.00;100.00
47054;BME280;32811;52.382;5.270;2024-03-22T00:45:35;102030.22;;;10.02;100.00
47054;BME280;32811;52.382;5.270;2024-03-22T00:48:01;102037.09;;;10.01;100.00
47054;BME280;32811;52.382;5.270;2024-03-22T00:50:26;102034.44;;;10.00;100.00
47054;BME280;32811;52.382;5.270;2024-03-22T00:52:54;102039.59;;;9.98;100.00
47054;BME280;32811;52.382;5.270;2024-03-22T00:55:22;102037.88;;;9.98;100.00
47054;BME280;32811;52.382;5.270;2024-03-22T00:57:48;102028.25;;;9.93;100.00
47054;BME280;32811;52.382;5.270;2024-03-22T01:00:14;102051.59;;;9.97;100.00
47054;BME280;32811;52.382;5.270;2024-03-22T01:02:41;102049.97;;;10.01;100.00
47054;BME280;32811;52.382;5.270;2024-03-22T01:05:07;102019.38;;;9.82;100.00
47054;BME280;32811;52.382;5.270;2024-03-22T01:07:32;102040.41;;;9.97;100.00
47054;BME280;32811;52.382;5.270;2024-03-22T01:09:58;102028.31;;;9.94;100.00
47054;BME280;32811;52.382;5.270;2024-03-22T01:12:23;102014.38;;;9.88;100.00
47054;BME280;32811;52.382;5.270;2024-03-22T01:14:49;102016.22;;;9.92;100.00
47054;BME280;32811;52.382;5.270;2024-03-22T01:17:15;101994.50;;;9.84;100.00
47054;BME280;32811;52.382;5.270;2024-03-22T01:19:40;102037.88;;;9.98;100.00
47054;BME280;32811;52.382;5.270;2024-03-22T01:22:06;102022.31;;;9.95;100.00
47054;BME280;32811;52.382;5.270;2024-03-22T01:24:32;102028.38;;;9.96;100.00
47054;BME280;32811;52.382;5.270;2024-03-22T01:26:57;102007.41;;;9.84;100.00
47054;BME280;32811;52.382;5.270;2024-03-22T01:29:23;102004.91;;;9.87;100.00
47054;BME280;32811;52.382;5.270;2024-03-22T01:31:48;102010.88;;;9.86;100.00
47054;BME280;32811;52.382;5.270;2024-03-22T01:34:14;102015.25;;;9.88;100.00
47054;BME280;32811;52.382;5.270;2024-03-22T01:36:40;102005.78;;;9.87;100.00
47054;BME280;32811;52.382;5.270;2024-03-22T01:39:06;102000.41;;;9.80;100.00
47054;BME280;32811;52.382;5.270;2024-03-22T01:41:32;102009.03;;;9.80;100.00
47054;BME280;32811;52.382;5.270;2024-03-22T01:43:58;102008.13;;;9.78;100.00
47054;BME280;32811;52.382;5.270;2024-03-22T01:46:23;102008.94;;;9.77;100.00
47054;BME280;32811;52.382;5.270;2024-03-22T01:48:49;101996.56;;;9.64;100.00
47054;BME280;32811;52.382;5.270;2024-03-22T01:51:15;101996.66;;;9.68;100.00
47054;BME280;32811;52.382;5.270;2024-03-22T01:53:41;101977.53;;;9.59;100.00
47054;BME280;32811;52.382;5.270;2024-03-22T01:56:07;102010.59;;;9.73;100.00
47054;BME280;32811;52.382;5.270;2024-03-22T01:58:33;102016.59;;;9.74;100.00
47054;BME280;32811;52.382;5.270;2024-03-22T02:00:59;102004.47;;;9.70;100.00
47054;BME280;32811;52.382;5.270;2024-03-22T02:03:24;101996.66;;;9.67;100.00
47054;BME280;32811;52.382;5.270;2024-03-22T02:05:50;101960.94;;;9.49;100.00
47054;BME280;32811;52.382;5.270;2024-03-22T02:08:15;101984.66;;;9.69;100.00
47054;BME280;32811;52.382;5.270;2024-03-22T02:10:42;101985.44;;;9.65;100.00
47054;BME280;32811;52.382;5.270;2024-03-22T02:13:08;101979.31;;;9.61;100.00
47054;BME280;32811;52.382;5.270;2024-03-22T02:15:34;101983.66;;;9.64;100.00
47054;BME280;32811;52.382;5.270;2024-03-22T02:17:59;101980.16;;;9.60;100.00
47054;BME280;32811;52.382;5.270;2024-03-22T02:20:25;101981.13;;;9.65;100.00
47054;BME280;32811;52.382;5.270;2024-03-22T02:22:51;101951.69;;;9.57;100.00
47054;BME280;32811;52.382;5.270;2024-03-22T02:25:16;101965.56;;;9.62;100.00
47054;BME280;32811;52.382;5.270;2024-03-22T02:27:42;101943.91;;;9.54;100.00
47054;BME280;32811;52.382;5.270;2024-03-22T02:30:08;101951.94;;;9.66;100.00
47054;BME280;32811;52.382;5.270;2024-03-22T02:32:34;101940.63;;;9.61;100.00
47054;BME280;32811;52.382;5.270;2024-03-22T02:34:59;101937.09;;;9.57;100.00
47054;BME280;32811;52.382;5.270;2024-03-22T02:37:25;101930.16;;;9.55;100.00
47054;BME280;32811;52.382;5.270;2024-03-22T02:39:51;101931.06;;;9.57;100.00
47054;BME280;32811;52.382;5.270;2024-03-22T02:42:16;101872.69;;;9.24;100.00
47054;BME280;32811;52.382;5.270;2024-03-22T02:44:42;101907.59;;;9.46;100.00
47054;BME280;32811;52.382;5.270;2024-03-22T02:47:10;101917.38;;;9.58;100.00
47054;BME280;32811;52.382;5.270;2024-03-22T02:49:38;101906.22;;;9.59;100.00
47054;BME280;32811;52.382;5.270;2024-03-22T02:52:05;101906.22;;;9.59;100.00
47054;BME280;32811;52.382;5.270;2024-03-22T02:54:30;101895.75;;;9.53;100.00
47054;BME280;32811;52.382;5.270;2024-03-22T02:56:56;101884.53;;;9.51;100.00
47054;BME280;32811;52.382;5.270;2024-03-22T02:59:21;101883.69;;;9.52;100.00
47054;BME280;32811;52.382;5.270;2024-03-22T03:01:47;101874.88;;;9.44;100.00
47054;BME280;32811;52.382;5.270;2024-03-22T03:04:12;101881.94;;;9.51;100.00
47054;BME280;32811;52.382;5.270;2024-03-22T03:06:38;101885.31;;;9.48;100.00
47054;BME280;32811;52.382;5.270;2024-03-22T03:09:04;101894.81;;;9.51;100.00
47054;BME280;32811;52.382;5.270;2024-03-22T03:11:38;101878.34;;;9.44;100.00
47054;BME280;32811;52.382;5.270;2024-03-22T03:14:03;101847.06;;;9.30;100.00
47054;BME280;32811;52.382;5.270;2024-03-22T03:16:29;101883.59;;;9.47;100.00
47054;BME280;32811;52.382;5.270;2024-03-22T03:18:55;101878.44;;;9.47;100.00
47054;BME280;32811;52.382;5.270;2024-03-22T03:21:20;101841.09;;;9.31;100.00
47054;BME280;32811;52.382;5.270;2024-03-22T03:23:46;101842.94;;;9.35;100.00
47054;BME280;32811;52.382;5.270;2024-03-22T03:26:11;101841.28;;;9.39;100.00
47054;BME280;32811;52.382;5.270;2024-03-22T03:28:37;101847.41;;;9.44;100.00
47054;BME280;32811;52.382;5.270;2024-03-22T03:31:03;101845.56;;;9.39;100.00
47054;BME280;32811;52.382;5.270;2024-03-22T03:33:28;101853.47;;;9.46;100.00
47054;BME280;32811;52.382;5.270;2024-03-22T03:35:54;101847.34;;;9.41;100.00
47054;BME280;32811;52.382;5.270;2024-03-22T03:38:19;101814.31;;;9.26;100.00
47054;BME280;32811;52.382;5.270;2024-03-22T03:40:46;101828.22;;;9.33;100.00
47054;BME280;32811;52.382;5.270;2024-03-22T03:43:12;101824.75;;;9.31;100.00
47054;BME280;32811;52.382;5.270;2024-03-22T03:45:38;101834.28;;;9.35;100.00
47054;BME280;32811;52.382;5.270;2024-03-22T03:48:03;101848.06;;;9.35;100.00
47054;BME280;32811;52.382;5.270;2024-03-22T03:50:29;101820.25;;;9.22;100.00
47054;BME280;32811;52.382;5.270;2024-03-22T03:52:55;101835.84;;;9.27;100.00
47054;BME280;32811;52.382;5.270;2024-03-22T03:55:22;101851.53;;;9.36;100.00
47054;BME280;32811;52.382;5.270;2024-03-22T03:57:50;101832.34;;;9.26;100.00
47054;BME280;32811;52.382;5.270;2024-03-22T04:00:15;101840.31;;;9.34;100.00
47054;BME280;32811;52.382;5.270;2024-03-22T04:02:41;101832.47;;;9.31;100.00
47054;BME280;32811;52.382;5.270;2024-03-22T04:05:07;101829.94;;;9.32;100.00
47054;BME280;32811;52.382;5.270;2024-03-22T04:07:32;101823.84;;;9.29;100.00
47054;BME280;32811;52.382;5.270;2024-03-22T04:09:58;101837.66;;;9.32;100.00
47054;BME280;32811;52.382;5.270;2024-03-22T04:12:26;101831.59;;;9.30;100.00
47054;BME280;32811;52.382;5.270;2024-03-22T04:14:52;101824.63;;;9.26;100.00
47054;BME280;32811;52.382;5.270;2024-03-22T04:17:18;101828.97;;;9.27;100.00
47054;BME280;32811;52.382;5.270;2024-03-22T04:19:43;101831.66;;;9.32;100.00
47054;BME280;32811;52.382;5.270;2024-03-22T04:22:09;101821.16;;;9.24;100.00
47054;BME280;32811;52.382;5.270;2024-03-22T04:24:35;101817.63;;;9.21;100.00
47054;BME280;32811;52.382;5.270;2024-03-22T04:27:00;101826.44;;;9.29;100.00
47054;BME280;32811;52.382;5.270;2024-03-22T04:29:26;101824.84;;;9.34;100.00
47054;BME280;32811;52.382;5.270;2024-03-22T04:31:51;101812.47;;;9.21;100.00
47054;BME280;32811;52.382;5.270;2024-03-22T04:34:17;101826.31;;;9.24;100.00
47054;BME280;32811;52.382;5.270;2024-03-22T04:36:42;101828.00;;;9.24;100.00
47054;BME280;32811;52.382;5.270;2024-03-22T04:39:09;101817.69;;;9.22;100.00
47054;BME280;32811;52.382;5.270;2024-03-22T04:41:35;101783.59;;;8.99;100.00
47054;BME280;32811;52.382;5.270;2024-03-22T04:44:00;101796.78;;;9.11;100.00
47054;BME280;32811;52.382;5.270;2024-03-22T04:46:26;101834.06;;;9.26;100.00
47054;BME280;32811;52.382;5.270;2024-03-22T04:48:52;101824.63;;;9.26;100.00
47054;BME280;32811;52.382;5.270;2024-03-22T04:51:17;101807.25;;;9.18;100.00
47054;BME280;32811;52.382;5.270;2024-03-22T04:53:43;101802.84;;;9.13;100.00
47054;BME280;32811;52.382;5.270;2024-03-22T04:56:09;101828.97;;;9.27;100.00
47054;BME280;32811;52.382;5.270;2024-03-22T04:58:35;101805.28;;;9.07;100.00
47054;BME280;32811;52.382;5.270;2024-03-22T05:01:00;101822.78;;;9.21;100.00
47054;BME280;32811;52.382;5.270;2024-03-22T05:03:26;101789.66;;;9.01;100.00
47054;BME280;32811;52.382;5.270;2024-03-22T05:05:52;101799.31;;;9.10;100.00
47054;BME280;32811;52.382;5.270;2024-03-22T05:08:17;101819.25;;;9.17;100.00
47054;BME280;32811;52.382;5.270;2024-03-22T05:10:43;101813.97;;;9.12;100.00
47054;BME280;32811;52.382;5.270;2024-03-22T05:13:09;101777.50;;;8.96;100.00
47054;BME280;32811;52.382;5.270;2024-03-22T05:15:34;101808.03;;;9.15;100.00
47054;BME280;32811;52.382;5.270;2024-03-22T05:18:00;101787.94;;;9.02;100.00
47054;BME280;32811;52.382;5.270;2024-03-22T05:20:26;101783.56;;;8.98;100.00
47054;BME280;32811;52.382;5.270;2024-03-22T05:22:54;101774.03;;;8.95;100.00
47054;BME280;32811;52.382;5.270;2024-03-22T05:25:20;101781.13;;;9.04;100.00
47054;BME280;32811;52.382;5.270;2024-03-22T05:27:45;101798.44;;;9.09;100.00
47054;BME280;32811;52.382;5.270;2024-03-22T05:30:12;101799.16;;;9.04;100.00
47054;BME280;32811;52.382;5.270;2024-03-22T05:32:38;101764.47;;;8.89;100.00
47054;BME280;32811;52.382;5.270;2024-03-22T05:35:04;101801.03;;;9.09;100.00
47054;BME280;32811;52.382;5.270;2024-03-22T05:37:30;101771.50;;;8.97;100.00
47054;BME280;32811;52.382;5.270;2024-03-22T05:39:56;101791.34;;;9.01;100.00
47054;BME280;32811;52.382;5.270;2024-03-22T05:42:21;101766.13;;;8.87;100.00
47054;BME280;32811;52.382;5.270;2024-03-22T05:44:47;101785.47;;;9.05;100.00
47054;BME280;32811;52.382;5.270;2024-03-22T05:47:13;101765.56;;;8.99;100.00
47054;BME280;32811;52.382;5.270;2024-03-22T05:49:39;101769.16;;;9.06;100.00
47054;BME280;32811;52.382;5.270;2024-03-22T05:52:05;101760.34;;;8.96;100.00
47054;BME280;32811;52.382;5.270;2024-03-22T05:54:31;101775.28;;;9.09;100.00
47054;BME280;32811;52.382;5.270;2024-03-22T05:56:56;101772.66;;;9.08;100.00
47054;BME280;32811;52.382;5.270;2024-03-22T05:59:22;101774.28;;;9.04;100.00
47054;BME280;32811;52.382;5.270;2024-03-22T06:01:48;101761.38;;;9.03;100.00
47054;BME280;32811;52.382;5.270;2024-03-22T06:04:14;101784.81;;;9.13;100.00
47054;BME280;32811;52.382;5.270;2024-03-22T06:06:39;101770.94;;;9.08;100.00
47054;BME280;32811;52.382;5.270;2024-03-22T06:09:05;101741.44;;;8.96;100.00
47054;BME280;32811;52.382;5.270;2024-03-22T06:11:35;101772.81;;;9.14;100.00
47054;BME280;32811;52.382;5.270;2024-03-22T06:14:01;101781.56;;;9.21;100.00
47054;BME280;32811;52.382;5.270;2024-03-22T06:16:26;101777.38;;;9.24;100.00
47054;BME280;32811;52.382;5.270;2024-03-22T06:18:52;101753.00;;;9.11;100.00
47054;BME280;32811;52.382;5.270;2024-03-22T06:21:18;101765.13;;;9.16;100.00
47054;BME280;32811;52.382;5.270;2024-03-22T06:23:51;101774.75;;;9.23;100.00
47054;BME280;32811;52.382;5.270;2024-03-22T06:26:17;101750.59;;;9.18;100.00
47054;BME280;32811;52.382;5.270;2024-03-22T06:28:43;101755.84;;;9.22;100.00
47054;BME280;32811;52.382;5.270;2024-03-22T06:31:09;101742.03;;;9.19;100.00
47054;BME280;32811;52.382;5.270;2024-03-22T06:33:35;101746.31;;;9.20;100.00
47054;BME280;32811;52.382;5.270;2024-03-22T06:36:01;101738.41;;;9.12;100.00
47054;BME280;32811;52.382;5.270;2024-03-22T06:38:26;101754.25;;;9.27;100.00
47054;BME280;32811;52.382;5.270;2024-03-22T06:40:52;101771.66;;;9.36;100.00
47054;BME280;32811;52.382;5.270;2024-03-22T06:43:18;101756.84;;;9.27;100.00
47054;BME280;32811;52.382;5.270;2024-03-22T06:45:43;101762.16;;;9.35;100.00
47054;BME280;32811;52.382;5.270;2024-03-22T06:48:09;101740.41;;;9.24;100.00
47054;BME280;32811;52.382;5.270;2024-03-22T06:50:34;101760.53;;;9.39;100.00
47054;BME280;32811;52.382;5.270;2024-03-22T06:53:00;101748.41;;;9.34;100.00
47054;BME280;32811;52.382;5.270;2024-03-22T06:55:25;101672.75;;;8.94;100.00
47054;BME280;32811;52.382;5.270;2024-03-22T06:57:51;101732.84;;;9.30;100.00
47054;BME280;32811;52.382;5.270;2024-03-22T07:00:18;101741.75;;;9.44;100.00
47054;BME280;32811;52.382;5.270;2024-03-22T07:02:44;101720.91;;;9.33;100.00
47054;BME280;32811;52.382;5.270;2024-03-22T07:05:10;101747.16;;;9.55;100.00
47054;BME280;32811;52.382;5.270;2024-03-22T07:07:36;101727.91;;;9.39;100.00
47054;BME280;32811;52.382;5.270;2024-03-22T07:10:03;101736.84;;;9.55;100.00
47054;BME280;32811;52.382;5.270;2024-03-22T07:12:33;101736.84;;;9.55;100.00
47054;BME280;32811;52.382;5.270;2024-03-22T07:15:00;101720.59;;;9.57;100.00
47054;BME280;32811;52.382;5.270;2024-03-22T07:17:26;101711.72;;;9.45;100.00
47054;BME280;32811;52.382;5.270;2024-03-22T07:19:51;101703.91;;;9.40;100.00
47054;BME280;32811;52.382;5.270;2024-03-22T07:22:18;101728.38;;;9.59;100.00
47054;BME280;32811;52.382;5.270;2024-03-22T07:24:43;101729.44;;;9.69;100.00
47054;BME280;32811;52.382;5.270;2024-03-22T07:27:09;101716.53;;;9.67;100.00
47054;BME280;32811;52.382;5.270;2024-03-22T07:29:35;101725.38;;;9.79;100.00
47054;BME280;32811;52.382;5.270;2024-03-22T07:32:01;101733.06;;;9.77;100.00
47054;BME280;32811;52.382;5.270;2024-03-22T07:34:26;101713.09;;;9.68;100.00
47054;BME280;32811;52.382;5.270;2024-03-22T07:36:52;101744.22;;;9.76;100.00
47054;BME280;32811;52.382;5.270;2024-03-22T07:39:18;101725.13;;;9.68;100.00
47054;BME280;32811;52.382;5.270;2024-03-22T07:41:44;101718.00;;;9.57;100.00
47054;BME280;32811;52.382;5.270;2024-03-22T07:44:09;101738.06;;;9.69;100.00
47054;BME280;32811;52.382;5.270;2024-03-22T07:46:36;101744.78;;;9.63;100.00
47054;BME280;32811;52.382;5.270;2024-03-22T07:49:02;101744.88;;;9.67;100.00
47054;BME280;32811;52.382;5.270;2024-03-22T07:51:30;101734.44;;;9.61;100.00
47054;BME280;32811;52.382;5.270;2024-03-22T07:53:55;101703.09;;;9.43;100.00
47054;BME280;32811;52.382;5.270;2024-03-22T07:56:21;101748.16;;;9.60;100.00
47054;BME280;32811;52.382;5.270;2024-03-22T07:58:47;101740.34;;;9.57;100.00
47054;BME280;32811;52.382;5.270;2024-03-22T08:01:12;101753.31;;;9.60;100.00
47054;BME280;32811;52.382;5.270;2024-03-22T08:03:38;101709.81;;;9.36;100.00
47054;BME280;32811;52.382;5.270;2024-03-22T08:06:04;101737.50;;;9.46;100.00
47054;BME280;32811;52.382;5.270;2024-03-22T08:08:29;101714.97;;;9.38;100.00
47054;BME280;32811;52.382;5.270;2024-03-22T08:10:55;101755.78;;;9.55;100.00
47054;BME280;32811;52.382;5.270;2024-03-22T08:13:20;101747.25;;;9.58;100.00
47054;BME280;32811;52.382;5.270;2024-03-22T08:15:46;101755.78;;;9.55;100.00
47054;BME280;32811;52.382;5.270;2024-03-22T08:18:12;101741.91;;;9.49;100.00
47054;BME280;32811;52.382;5.270;2024-03-22T08:20:38;101734.88;;;9.43;100.00
47054;BME280;32811;52.382;5.270;2024-03-22T08:23:07;101766.22;;;9.60;100.00
47054;BME280;32811;52.382;5.270;2024-03-22T08:25:33;101763.63;;;9.60;100.00
47054;BME280;32811;52.382;5.270;2024-03-22T08:27:59;101747.94;;;9.51;100.00
47054;BME280;32811;52.382;5.270;2024-03-22T08:30:24;101728.66;;;9.35;100.00
47054;BME280;32811;52.382;5.270;2024-03-22T08:32:51;101758.22;;;9.49;100.00
47054;BME280;32811;52.382;5.270;2024-03-22T08:35:17;101768.47;;;9.48;100.00
47054;BME280;32811;52.382;5.270;2024-03-22T08:37:42;101765.09;;;9.50;100.00
47054;BME280;32811;52.382;5.270;2024-03-22T08:40:08;101754.63;;;9.43;100.00
47054;BME280;32811;52.382;5.270;2024-03-22T08:42:36;101759.78;;;9.44;100.00
47054;BME280;32811;52.382;5.270;2024-03-22T08:45:02;101756.34;;;9.42;100.00
47054;BME280;32811;52.382;5.270;2024-03-22T08:47:30;101758.13;;;9.45;100.00
47054;BME280;32811;52.382;5.270;2024-03-22T08:49:55;101750.16;;;9.35;100.00
47054;BME280;32811;52.382;5.270;2024-03-22T08:52:23;101744.06;;;9.32;100.00
47054;BME280;32811;52.382;5.270;2024-03-22T08:54:50;101758.88;;;9.41;100.00
47054;BME280;32811;52.382;5.270;2024-03-22T08:57:16;101742.31;;;9.31;100.00
47054;BME280;32811;52.382;5.270;2024-03-22T08:59:41;101757.91;;;9.35;100.00
47054;BME280;32811;52.382;5.270;2024-03-22T09:02:07;101732.56;;;9.18;100.00
47054;BME280;32811;52.382;5.270;2024-03-22T09:04:33;101747.50;;;9.32;100.00
47054;BME280;32811;52.382;5.270;2024-03-22T09:06:58;101756.19;;;9.36;100.00
47054;BME280;32811;52.382;5.270;2024-03-22T09:09:24;101763.88;;;9.34;100.00
47054;BME280;32811;52.382;5.270;2024-03-22T09:11:49;101767.28;;;9.33;100.00
47054;BME280;32811;52.382;5.270;2024-03-22T09:14:15;101762.84;;;9.28;100.00
47054;BME280;32811;52.382;5.270;2024-03-22T09:16:42;101756.84;;;9.27;100.00
47054;BME280;32811;52.382;5.270;2024-03-22T09:19:08;101767.19;;;9.29;100.00
47054;BME280;32811;52.382;5.270;2024-03-22T09:21:33;101740.41;;;9.22;100.00
47054;BME280;32811;52.382;5.270;2024-03-22T09:23:59;101754.31;;;9.30;100.00
47054;BME280;32811;52.382;5.270;2024-03-22T09:26:24;101742.19;;;9.25;100.00
47054;BME280;32811;52.382;5.270;2024-03-22T09:28:50;101748.25;;;9.28;100.00
47054;BME280;32811;52.382;5.270;2024-03-22T09:31:16;101752.69;;;9.34;100.00
47054;BME280;32811;52.382;5.270;2024-03-22T09:33:42;101734.50;;;9.28;100.00
47054;BME280;32811;52.382;5.270;2024-03-22T09:36:08;101752.81;;;9.39;100.00
47054;BME280;32811;52.382;5.270;2024-03-22T09:38:34;101742.72;;;9.48;100.00
47054;BME280;32811;52.382;5.270;2024-03-22T09:41:00;101754.88;;;9.53;100.00
47054;BME280;32811;52.382;5.270;2024-03-22T09:43:31;101763.63;;;9.60;100.00
47054;BME280;32811;52.382;5.270;2024-03-22T09:45:58;101737.59;;;9.49;100.00
47054;BME280;32811;52.382;5.270;2024-03-22T09:48:23;101744.81;;;9.64;100.00
47054;BME280;32811;52.382;5.270;2024-03-22T09:50:50;101742.22;;;9.64;100.00
47054;BME280;32811;52.382;5.270;2024-03-22T09:53:20;101744.03;;;9.68;100.00
47054;BME280;32811;52.382;5.270;2024-03-22T09:55:48;101740.56;;;9.66;100.00
47054;BME280;32811;52.382;5.270;2024-03-22T09:58:14;101730.13;;;9.60;100.00
47054;BME280;32811;52.382;5.270;2024-03-22T10:00:42;101745.91;;;9.74;100.00
47054;BME280;32811;52.382;5.270;2024-03-22T10:03:09;101719.00;;;9.63;100.00
47054;BME280;32811;52.382;5.270;2024-03-22T10:05:35;101740.69;;;9.72;100.00
47054;BME280;32811;52.382;5.270;2024-03-22T10:08:02;101716.25;;;9.55;100.00
47054;BME280;32811;52.382;5.270;2024-03-22T10:10:28;101717.19;;;9.59;100.00
47054;BME280;32811;52.382;5.270;2024-03-22T10:12:54;101726.09;;;9.71;100.00
47054;BME280;32811;52.382;5.270;2024-03-22T10:15:19;101734.78;;;9.76;100.00
47054;BME280;32811;52.382;5.270;2024-03-22T10:17:45;101707.78;;;9.61;100.00
47054;BME280;32811;52.382;5.270;2024-03-22T10:20:14;101736.50;;;9.76;100.00
47054;BME280;32811;52.382;5.270;2024-03-22T10:22:47;101715.63;;;9.65;100.00
47054;BME280;32811;52.382;5.270;2024-03-22T10:25:13;101740.91;;;9.82;100.00
47054;BME280;32811;52.382;5.270;2024-03-22T10:27:40;101741.59;;;9.74;100.00
47054;BME280;32811;52.382;5.270;2024-03-22T10:30:09;101735.50;;;9.71;100.00
47054;BME280;32811;52.382;5.270;2024-03-22T10:32:36;101735.38;;;9.65;100.00
47054;BME280;32811;52.382;5.270;2024-03-22T10:35:03;101735.50;;;9.69;100.00
47054;BME280;32811;52.382;5.270;2024-03-22T10:37:35;101737.84;;;9.60;100.00
47054;BME280;32811;52.382;5.270;2024-03-22T10:40:01;101738.88;;;9.67;100.00
47054;BME280;32811;52.382;5.270;2024-03-22T10:42:36;101736.25;;;9.65;100.00
47054;BME280;32811;52.382;5.270;2024-03-22T10:45:03;101737.06;;;9.64;100.00
47054;BME280;32811;52.382;5.270;2024-03-22T10:47:30;101732.81;;;9.65;100.00
47054;BME280;32811;52.382;5.270;2024-03-22T10:50:09;101737.91;;;9.63;100.00
47054;BME280;32811;52.382;5.270;2024-03-22T10:52:39;101739.72;;;9.67;100.00
47054;BME280;32811;52.382;5.270;2024-03-22T10:55:09;101711.09;;;9.55;100.00
47054;BME280;32811;52.382;5.270;2024-03-22T10:57:36;101738.06;;;9.69;100.00
47054;BME280;32811;52.382;5.270;2024-03-22T11:00:09;101713.75;;;9.60;100.00
47054;BME280;32811;52.382;5.270;2024-03-22T11:02:38;101732.16;;;9.75;100.00
47054;BME280;32811;52.382;5.270;2024-03-22T11:05:04;101669.44;;;9.37;100.00
47054;BME280;32811;52.382;5.270;2024-03-22T11:07:31;101685.91;;;9.43;100.00
47054;BME280;32811;52.382;5.270;2024-03-22T11:09:58;101720.84;;;9.68;100.00
47054;BME280;32811;52.382;5.270;2024-03-22T11:12:25;101724.47;;;9.76;100.00
47054;BME280;32811;52.382;5.270;2024-03-22T11:14:52;101704.56;;;9.71;100.00
47054;BME280;32811;52.382;5.270;2024-03-22T11:17:18;101718.53;;;9.81;100.00
47054;BME280;32811;52.382;5.270;2024-03-22T11:19:44;101622.81;;;9.24;100.00
47054;BME280;32811;52.382;5.270;2024-03-22T11:22:09;101716.69;;;9.75;100.00
47054;BME280;32811;52.382;5.270;2024-03-22T11:24:41;101690.63;;;9.61;100.00
47054;BME280;32811;52.382;5.270;2024-03-22T11:27:06;101693.25;;;9.64;100.00
47054;BME280;32811;52.382;5.270;2024-03-22T11:29:32;101705.47;;;9.71;100.00
47054;BME280;32811;52.382;5.270;2024-03-22T11:31:59;101682.03;;;9.62;100.00
47054;BME280;32811;52.382;5.270;2024-03-22T11:34:25;101681.06;;;9.57;100.00
47054;BME280;32811;52.382;5.270;2024-03-22T11:36:53;101715.78;;;9.71;100.00
47054;BME280;32811;52.382;5.270;2024-03-22T11:39:19;101702.75;;;9.65;100.00
47054;BME280;32811;52.382;5.270;2024-03-22T11:41:45;101698.41;;;9.64;100.00
47054;BME280;32811;52.382;5.270;2024-03-22T11:44:15;101707.03;;;9.66;100.00
47054;BME280;32811;52.382;5.270;2024-03-22T11:46:41;101694.16;;;9.66;100.00
47054;BME280;32811;52.382;5.270;2024-03-22T11:49:07;101690.66;;;9.64;100.00
47054;BME280;32811;52.382;5.270;2024-03-22T11:51:33;101662.09;;;9.53;100.00
47054;BME280;32811;52.382;5.270;2024-03-22T11:54:02;101693.38;;;9.70;100.00
47054;BME280;32811;52.382;5.270;2024-03-22T11:56:28;101695.19;;;9.74;100.00
47054;BME280;32811;52.382;5.270;2024-03-22T11:59:00;101678.78;;;9.71;100.00
47054;BME280;32811;52.382;5.270;2024-03-22T12:01:26;101675.34;;;9.70;100.00
47054;BME280;32811;52.382;5.270;2024-03-22T12:03:53;101662.34;;;9.66;100.00
47054;BME280;32811;52.382;5.270;2024-03-22T12:06:20;101662.41;;;9.67;100.00
47054;BME280;32811;52.382;5.270;2024-03-22T12:08:46;101674.56;;;9.74;100.00
47054;BME280;32811;52.382;5.270;2024-03-22T12:11:11;101669.47;;;9.77;100.00
47054;BME280;32811;52.382;5.270;2024-03-22T12:13:38;101687.16;;;10.02;100.00
47054;BME280;32811;52.382;5.270;2024-03-22T12:16:04;101688.78;;;9.96;100.00
47054;BME280;32811;52.382;5.270;2024-03-22T12:18:30;101673.44;;;10.03;100.00
47054;BME280;32811;52.382;5.270;2024-03-22T12:20:55;101610.03;;;9.70;100.00
47054;BME280;32811;52.382;5.270;2024-03-22T12:23:21;101667.41;;;10.02;100.00
47054;BME280;32811;52.382;5.270;2024-03-22T12:25:47;101649.84;;;9.83;100.00
47054;BME280;32811;52.382;5.270;2024-03-22T12:28:12;101654.22;;;9.88;100.00
47054;BME280;32811;52.382;5.270;2024-03-22T12:30:39;101671.66;;;10.00;100.00
47054;BME280;32811;52.382;5.270;2024-03-22T12:33:05;101647.34;;;9.89;100.00
47054;BME280;32811;52.382;5.270;2024-03-22T12:35:39;101663.72;;;9.91;100.00
47054;BME280;32811;52.382;5.270;2024-03-22T12:38:05;101664.81;;;10.01;100.00
47054;BME280;32811;52.382;5.270;2024-03-22T12:40:30;101658.78;;;10.02;100.00
47054;BME280;32811;52.382;5.270;2024-03-22T12:42:58;101666.66;;;10.08;100.00
47054;BME280;32811;52.382;5.270;2024-03-22T12:45:24;101646.63;;;9.94;100.00